<?xml version='1.0' encoding='UTF-8'?><gpx version="1.1" creator="JPX - https://github.com/jenetics/jpx" xmlns="http://www.topografix.com/GPX/1/1"><trk><trkseg><trkpt lat="40.4932942" lon="9.81866"><ele>1.0</ele><time>2026-04-26T16:11:26.043Z</time></trkpt><trkpt lat="40.4933036" lon="9.818754"><ele>0.9999999999999999</ele><time>2026-04-26T16:11:32.044Z</time></trkpt><trkpt lat="40.4933104" lon="9.8188505"><ele>1.0</ele><time>2026-04-26T16:11:38.043Z</time></trkpt><trkpt lat="40.4933572" lon="9.818919"><ele>1.0</ele><time>2026-04-26T16:11:44.98Z</time></trkpt><trkpt lat="40.4934252" lon="9.8189354"><ele>0.9999999999999999</ele><time>2026-04-26T16:11:51.043Z</time></trkpt><trkpt lat="40.4934918" lon="9.8189655"><ele>1.0</ele><time>2026-04-26T16:11:57.043Z</time></trkpt><trkpt lat="40.4935356" lon="9.8190251"><ele>1.0</ele><time>2026-04-26T16:12:02.043Z</time></trkpt><trkpt lat="40.4935951" lon="9.8190792"><ele>1.0</ele><time>2026-04-26T16:12:07.972Z</time></trkpt><trkpt lat="40.4936639" lon="9.8190657"><ele>0.9999999999999999</ele><time>2026-04-26T16:12:14.014Z</time></trkpt><trkpt lat="40.4937264" lon="9.8191212"><ele>1.0</ele><time>2026-04-26T16:12:20.043Z</time></trkpt><trkpt lat="40.4937588" lon="9.8192009"><ele>1.0</ele><time>2026-04-26T16:12:25.043Z</time></trkpt><trkpt lat="40.4938294" lon="9.819208"><ele>0.9999999999999999</ele><time>2026-04-26T16:12:30.043Z</time></trkpt><trkpt lat="40.4938923" lon="9.8192337"><ele>1.0</ele><time>2026-04-26T16:12:36.043Z</time></trkpt><trkpt lat="40.4939223" lon="9.8193233"><ele>1.0</ele><time>2026-04-26T16:12:42.044Z</time></trkpt><trkpt lat="40.4939734" lon="9.8193926"><ele>1.1428571428571428</ele><time>2026-04-26T16:12:47.953Z</time></trkpt><trkpt lat="40.4940431" lon="9.8194133"><ele>1.2857142857142856</ele><time>2026-04-26T16:12:53.043Z</time></trkpt><trkpt lat="40.4941115" lon="9.8194289"><ele>1.4285714285714284</ele><time>2026-04-26T16:12:59.043Z</time></trkpt><trkpt lat="40.494182" lon="9.8194296"><ele>1.5714285714285714</ele><time>2026-04-26T16:13:05.043Z</time></trkpt><trkpt lat="40.4942323" lon="9.8193718"><ele>1.714285714285714</ele><time>2026-04-26T16:13:11.043Z</time></trkpt><trkpt lat="40.4942845" lon="9.8193207"><ele>1.857142857142857</ele><time>2026-04-26T16:13:16.043Z</time></trkpt><trkpt lat="40.4943257" lon="9.8192392"><ele>2.0</ele><time>2026-04-26T16:13:22.043Z</time></trkpt><trkpt lat="40.4943842" lon="9.8192054"><ele>2.142857142857143</ele><time>2026-04-26T16:13:28.044Z</time></trkpt><trkpt lat="40.4944461" lon="9.8191658"><ele>2.2857142857142856</ele><time>2026-04-26T16:13:34.044Z</time></trkpt><trkpt lat="40.4945204" lon="9.8191619"><ele>2.4285714285714284</ele><time>2026-04-26T16:13:40.043Z</time></trkpt><trkpt lat="40.4945563" lon="9.8190845"><ele>2.571428571428571</ele><time>2026-04-26T16:13:45.043Z</time></trkpt><trkpt lat="40.4946031" lon="9.8190268"><ele>2.7142857142857144</ele><time>2026-04-26T16:13:49.977Z</time></trkpt><trkpt lat="40.494661" lon="9.8189716"><ele>2.8571428571428568</ele><time>2026-04-26T16:13:55.043Z</time></trkpt><trkpt lat="40.4947196" lon="9.8189162"><ele>3.0</ele><time>2026-04-26T16:14:01.044Z</time></trkpt><trkpt lat="40.4947896" lon="9.8188854"><ele>3.2857142857142856</ele><time>2026-04-26T16:14:07.043Z</time></trkpt><trkpt lat="40.4948614" lon="9.8188807"><ele>3.571428571428571</ele><time>2026-04-26T16:14:13.043Z</time></trkpt><trkpt lat="40.4949334" lon="9.8189063"><ele>3.8571428571428568</ele><time>2026-04-26T16:14:19.043Z</time></trkpt><trkpt lat="40.494996" lon="9.8189231"><ele>4.142857142857142</ele><time>2026-04-26T16:14:24.043Z</time></trkpt><trkpt lat="40.4950699" lon="9.8189261"><ele>4.428571428571429</ele><time>2026-04-26T16:14:30.043Z</time></trkpt><trkpt lat="40.4951376" lon="9.818935"><ele>4.714285714285714</ele><time>2026-04-26T16:14:35.043Z</time></trkpt><trkpt lat="40.4952022" lon="9.8189591"><ele>5.0</ele><time>2026-04-26T16:14:40.045Z</time></trkpt><trkpt lat="40.4952668" lon="9.8189688"><ele>5.0</ele><time>2026-04-26T16:14:45.044Z</time></trkpt><trkpt lat="40.4953374" lon="9.8189911"><ele>5.0</ele><time>2026-04-26T16:14:51.043Z</time></trkpt><trkpt lat="40.4954112" lon="9.8190064"><ele>5.0</ele><time>2026-04-26T16:14:57.043Z</time></trkpt><trkpt lat="40.4954781" lon="9.8190223"><ele>5.0</ele><time>2026-04-26T16:15:02.043Z</time></trkpt><trkpt lat="40.4955431" lon="9.8190343"><ele>5.0</ele><time>2026-04-26T16:15:07.044Z</time></trkpt><trkpt lat="40.4956034" lon="9.8190644"><ele>5.0</ele><time>2026-04-26T16:15:12.044Z</time></trkpt><trkpt lat="40.4956737" lon="9.8190862"><ele>5.0</ele><time>2026-04-26T16:15:18.043Z</time></trkpt><trkpt lat="40.4957281" lon="9.8191381"><ele>5.142857142857142</ele><time>2026-04-26T16:15:23.044Z</time></trkpt><trkpt lat="40.4957794" lon="9.8191892"><ele>5.285714285714286</ele><time>2026-04-26T16:15:28.044Z</time></trkpt><trkpt lat="40.4958431" lon="9.819209"><ele>5.428571428571429</ele><time>2026-04-26T16:15:33.043Z</time></trkpt><trkpt lat="40.4959124" lon="9.8192334"><ele>5.571428571428571</ele><time>2026-04-26T16:15:38.044Z</time></trkpt><trkpt lat="40.4959781" lon="9.8192376"><ele>5.714285714285714</ele><time>2026-04-26T16:15:43.044Z</time></trkpt><trkpt lat="40.4960521" lon="9.8192298"><ele>5.857142857142857</ele><time>2026-04-26T16:15:49.043Z</time></trkpt><trkpt lat="40.4961141" lon="9.8192464"><ele>6.0</ele><time>2026-04-26T16:15:54.043Z</time></trkpt><trkpt lat="40.4961862" lon="9.81927"><ele>5.7142857142857135</ele><time>2026-04-26T16:16:00.044Z</time></trkpt><trkpt lat="40.4962554" lon="9.8192855"><ele>5.428571428571429</ele><time>2026-04-26T16:16:05.043Z</time></trkpt><trkpt lat="40.4963227" lon="9.8192902"><ele>5.142857142857142</ele><time>2026-04-26T16:16:10.043Z</time></trkpt><trkpt lat="40.4963875" lon="9.8192892"><ele>4.857142857142857</ele><time>2026-04-26T16:16:15.043Z</time></trkpt><trkpt lat="40.4964563" lon="9.819312"><ele>4.571428571428571</ele><time>2026-04-26T16:16:20.043Z</time></trkpt><trkpt lat="40.4965221" lon="9.8193177"><ele>4.285714285714286</ele><time>2026-04-26T16:16:25.043Z</time></trkpt><trkpt lat="40.4965869" lon="9.8193097"><ele>4.0</ele><time>2026-04-26T16:16:29.894Z</time></trkpt><trkpt lat="40.4966546" lon="9.8193066"><ele>4.0</ele><time>2026-04-26T16:16:35.043Z</time></trkpt><trkpt lat="40.4967204" lon="9.8193043"><ele>3.9999999999999996</ele><time>2026-04-26T16:16:40.043Z</time></trkpt><trkpt lat="40.4967937" lon="9.819322"><ele>4.0</ele><time>2026-04-26T16:16:46.043Z</time></trkpt><trkpt lat="40.4968483" lon="9.8192702"><ele>4.0</ele><time>2026-04-26T16:16:51.015Z</time></trkpt><trkpt lat="40.4969224" lon="9.8192647"><ele>3.9999999999999996</ele><time>2026-04-26T16:16:57.044Z</time></trkpt><trkpt lat="40.496987" lon="9.8192333"><ele>4.0</ele><time>2026-04-26T16:17:02.044Z</time></trkpt><trkpt lat="40.4970464" lon="9.8191765"><ele>4.0</ele><time>2026-04-26T16:17:08.043Z</time></trkpt><trkpt lat="40.4971189" lon="9.8191513"><ele>4.285714285714286</ele><time>2026-04-26T16:17:14.044Z</time></trkpt><trkpt lat="40.4971942" lon="9.8191497"><ele>4.571428571428571</ele><time>2026-04-26T16:17:20.043Z</time></trkpt><trkpt lat="40.4972628" lon="9.8191577"><ele>4.857142857142857</ele><time>2026-04-26T16:17:26.043Z</time></trkpt><trkpt lat="40.4973353" lon="9.8191638"><ele>5.142857142857142</ele><time>2026-04-26T16:17:32.043Z</time></trkpt><trkpt lat="40.4974014" lon="9.8191654"><ele>5.428571428571429</ele><time>2026-04-26T16:17:38.043Z</time></trkpt><trkpt lat="40.4974762" lon="9.8191703"><ele>5.7142857142857135</ele><time>2026-04-26T16:17:44.044Z</time></trkpt><trkpt lat="40.4975455" lon="9.8191753"><ele>6.0</ele><time>2026-04-26T16:17:50.043Z</time></trkpt><trkpt lat="40.4976124" lon="9.8191965"><ele>5.999999999999999</ele><time>2026-04-26T16:17:56.044Z</time></trkpt><trkpt lat="40.497669" lon="9.8192363"><ele>6.0</ele><time>2026-04-26T16:18:00.991Z</time></trkpt><trkpt lat="40.4977285" lon="9.8192895"><ele>6.0</ele><time>2026-04-26T16:18:06.968Z</time></trkpt><trkpt lat="40.4977794" lon="9.8193446"><ele>6.0</ele><time>2026-04-26T16:18:12.043Z</time></trkpt><trkpt lat="40.4978362" lon="9.8193901"><ele>6.0</ele><time>2026-04-26T16:18:17.043Z</time></trkpt><trkpt lat="40.4979047" lon="9.8194217"><ele>5.999999999999999</ele><time>2026-04-26T16:18:22.04Z</time></trkpt><trkpt lat="40.4979657" lon="9.8194701"><ele>6.0</ele><time>2026-04-26T16:18:28.043Z</time></trkpt><trkpt lat="40.4980392" lon="9.8194926"><ele>5.571428571428571</ele><time>2026-04-26T16:18:34.043Z</time></trkpt><trkpt lat="40.4981055" lon="9.8195092"><ele>5.142857142857142</ele><time>2026-04-26T16:18:39.044Z</time></trkpt><trkpt lat="40.4981657" lon="9.8195441"><ele>4.7142857142857135</ele><time>2026-04-26T16:18:44.043Z</time></trkpt><trkpt lat="40.4982287" lon="9.8195774"><ele>4.285714285714286</ele><time>2026-04-26T16:18:49.043Z</time></trkpt><trkpt lat="40.4982954" lon="9.8196192"><ele>3.8571428571428568</ele><time>2026-04-26T16:18:55.043Z</time></trkpt><trkpt lat="40.498361" lon="9.8196384"><ele>3.4285714285714284</ele><time>2026-04-26T16:19:00.043Z</time></trkpt><trkpt lat="40.4984285" lon="9.8196307"><ele>3.0</ele><time>2026-04-26T16:19:05.043Z</time></trkpt><trkpt lat="40.4984935" lon="9.819596"><ele>2.9999999999999996</ele><time>2026-04-26T16:19:10.02Z</time></trkpt><trkpt lat="40.4985556" lon="9.8195543"><ele>3.0</ele><time>2026-04-26T16:19:16.043Z</time></trkpt><trkpt lat="40.4986174" lon="9.8195087"><ele>3.0</ele><time>2026-04-26T16:19:21.039Z</time></trkpt><trkpt lat="40.4986737" lon="9.8194498"><ele>3.0</ele><time>2026-04-26T16:19:26.043Z</time></trkpt><trkpt lat="40.498737" lon="9.819425"><ele>3.0</ele><time>2026-04-26T16:19:31.043Z</time></trkpt><trkpt lat="40.4988056" lon="9.8194482"><ele>2.9999999999999996</ele><time>2026-04-26T16:19:36.002Z</time></trkpt><trkpt lat="40.4988717" lon="9.819467"><ele>3.0</ele><time>2026-04-26T16:19:40.951Z</time></trkpt><trkpt lat="40.4989431" lon="9.8194434"><ele>2.9999999999999996</ele><time>2026-04-26T16:19:50.043Z</time></trkpt><trkpt lat="40.499008" lon="9.8194746"><ele>3.0</ele><time>2026-04-26T16:19:55.043Z</time></trkpt><trkpt lat="40.4990712" lon="9.8195436"><ele>3.0</ele><time>2026-04-26T16:20:02.043Z</time></trkpt><trkpt lat="40.4991247" lon="9.8195885"><ele>3.0</ele><time>2026-04-26T16:20:07.043Z</time></trkpt><trkpt lat="40.4991904" lon="9.8196303"><ele>3.0</ele><time>2026-04-26T16:20:12.961Z</time></trkpt><trkpt lat="40.4992539" lon="9.8196704"><ele>2.9999999999999996</ele><time>2026-04-26T16:20:18.043Z</time></trkpt><trkpt lat="40.4993173" lon="9.8197101"><ele>3.0</ele><time>2026-04-26T16:20:24.043Z</time></trkpt><trkpt lat="40.4993778" lon="9.819741"><ele>2.9999999999999996</ele><time>2026-04-26T16:20:29.044Z</time></trkpt><trkpt lat="40.499435" lon="9.8197811"><ele>3.0</ele><time>2026-04-26T16:20:34.043Z</time></trkpt><trkpt lat="40.499493" lon="9.8198133"><ele>3.0</ele><time>2026-04-26T16:20:39.045Z</time></trkpt><trkpt lat="40.4995651" lon="9.8198362"><ele>3.0</ele><time>2026-04-26T16:20:43.962Z</time></trkpt><trkpt lat="40.4996349" lon="9.8198662"><ele>3.0</ele><time>2026-04-26T16:20:50.043Z</time></trkpt><trkpt lat="40.4996972" lon="9.8198845"><ele>2.9999999999999996</ele><time>2026-04-26T16:20:55.043Z</time></trkpt><trkpt lat="40.4997714" lon="9.8198919"><ele>3.0</ele><time>2026-04-26T16:21:01.044Z</time></trkpt><trkpt lat="40.4998465" lon="9.8198963"><ele>3.1428571428571423</ele><time>2026-04-26T16:21:07.043Z</time></trkpt><trkpt lat="40.4999163" lon="9.8199066"><ele>3.2857142857142856</ele><time>2026-04-26T16:21:13.043Z</time></trkpt><trkpt lat="40.4999789" lon="9.8199163"><ele>3.4285714285714284</ele><time>2026-04-26T16:21:18.043Z</time></trkpt><trkpt lat="40.5000439" lon="9.819919"><ele>3.571428571428571</ele><time>2026-04-26T16:21:23.044Z</time></trkpt><trkpt lat="40.5001165" lon="9.819937"><ele>3.714285714285714</ele><time>2026-04-26T16:21:29.043Z</time></trkpt><trkpt lat="40.5001805" lon="9.8199655"><ele>3.8571428571428568</ele><time>2026-04-26T16:21:34.004Z</time></trkpt><trkpt lat="40.5002479" lon="9.8199912"><ele>4.0</ele><time>2026-04-26T16:21:39.043Z</time></trkpt><trkpt lat="40.5003207" lon="9.8200216"><ele>4.0</ele><time>2026-04-26T16:21:45.043Z</time></trkpt><trkpt lat="40.500389" lon="9.8200498"><ele>3.9999999999999996</ele><time>2026-04-26T16:21:50.043Z</time></trkpt><trkpt lat="40.500454" lon="9.8200901"><ele>4.0</ele><time>2026-04-26T16:21:56.044Z</time></trkpt><trkpt lat="40.5005142" lon="9.8201252"><ele>4.0</ele><time>2026-04-26T16:22:01.043Z</time></trkpt><trkpt lat="40.5005734" lon="9.8201792"><ele>3.9999999999999996</ele><time>2026-04-26T16:22:06.035Z</time></trkpt><trkpt lat="40.500636" lon="9.8202371"><ele>4.0</ele><time>2026-04-26T16:22:12.044Z</time></trkpt><trkpt lat="40.5006746" lon="9.8203177"><ele>4.0</ele><time>2026-04-26T16:22:18.044Z</time></trkpt><trkpt lat="40.5007168" lon="9.8204008"><ele>4.142857142857142</ele><time>2026-04-26T16:22:24.021Z</time></trkpt><trkpt lat="40.500768" lon="9.8204619"><ele>4.285714285714286</ele><time>2026-04-26T16:22:29.043Z</time></trkpt><trkpt lat="40.5008151" lon="9.8205304"><ele>4.428571428571429</ele><time>2026-04-26T16:22:35.044Z</time></trkpt><trkpt lat="40.5008679" lon="9.8206011"><ele>4.571428571428571</ele><time>2026-04-26T16:22:41.043Z</time></trkpt><trkpt lat="40.500933" lon="9.8206351"><ele>4.714285714285714</ele><time>2026-04-26T16:22:47.043Z</time></trkpt><trkpt lat="40.5010012" lon="9.8206723"><ele>4.857142857142857</ele><time>2026-04-26T16:22:53.043Z</time></trkpt><trkpt lat="40.5010596" lon="9.8207081"><ele>5.0</ele><time>2026-04-26T16:22:58.043Z</time></trkpt><trkpt lat="40.5011119" lon="9.8207661"><ele>5.0</ele><time>2026-04-26T16:23:03.05Z</time></trkpt><trkpt lat="40.5011561" lon="9.8208453"><ele>5.0</ele><time>2026-04-26T16:23:09.043Z</time></trkpt><trkpt lat="40.5011878" lon="9.8209279"><ele>5.0</ele><time>2026-04-26T16:23:15.043Z</time></trkpt><trkpt lat="40.5012455" lon="9.8209882"><ele>5.0</ele><time>2026-04-26T16:23:21.043Z</time></trkpt><trkpt lat="40.5012783" lon="9.8210634"><ele>5.0</ele><time>2026-04-26T16:23:25.958Z</time></trkpt><trkpt lat="40.5013194" lon="9.8211421"><ele>5.0</ele><time>2026-04-26T16:23:32.043Z</time></trkpt><trkpt lat="40.5013794" lon="9.8211821"><ele>5.0</ele><time>2026-04-26T16:23:38.043Z</time></trkpt><trkpt lat="40.5014444" lon="9.8212205"><ele>4.857142857142857</ele><time>2026-04-26T16:23:44.003Z</time></trkpt><trkpt lat="40.5015164" lon="9.8212422"><ele>4.714285714285714</ele><time>2026-04-26T16:23:50.044Z</time></trkpt><trkpt lat="40.5015786" lon="9.8212611"><ele>4.571428571428571</ele><time>2026-04-26T16:23:55.043Z</time></trkpt><trkpt lat="40.5016414" lon="9.8212074"><ele>4.428571428571429</ele><time>2026-04-26T16:24:02.044Z</time></trkpt><trkpt lat="40.5016913" lon="9.821143"><ele>4.285714285714286</ele><time>2026-04-26T16:24:08.032Z</time></trkpt><trkpt lat="40.5017631" lon="9.8211238"><ele>4.142857142857142</ele><time>2026-04-26T16:24:14.043Z</time></trkpt><trkpt lat="40.5018318" lon="9.8210989"><ele>4.0</ele><time>2026-04-26T16:24:20.044Z</time></trkpt><trkpt lat="40.5018932" lon="9.8210451"><ele>4.714285714285714</ele><time>2026-04-26T16:24:26.043Z</time></trkpt><trkpt lat="40.5019395" lon="9.8209755"><ele>5.428571428571429</ele><time>2026-04-26T16:24:32.044Z</time></trkpt><trkpt lat="40.5019876" lon="9.8209034"><ele>6.142857142857143</ele><time>2026-04-26T16:24:37.966Z</time></trkpt><trkpt lat="40.5020444" lon="9.8208465"><ele>6.857142857142858</ele><time>2026-04-26T16:24:44.043Z</time></trkpt><trkpt lat="40.502098" lon="9.8207864"><ele>7.571428571428571</ele><time>2026-04-26T16:24:50.043Z</time></trkpt><trkpt lat="40.5021577" lon="9.8207326"><ele>8.285714285714286</ele><time>2026-04-26T16:24:56.043Z</time></trkpt><trkpt lat="40.50222" lon="9.8206833"><ele>9.0</ele><time>2026-04-26T16:25:01.987Z</time></trkpt><trkpt lat="40.5022851" lon="9.820696"><ele>9.142857142857144</ele><time>2026-04-26T16:25:06.987Z</time></trkpt><trkpt lat="40.5023329" lon="9.8207539"><ele>9.285714285714286</ele><time>2026-04-26T16:25:12.044Z</time></trkpt><trkpt lat="40.5023768" lon="9.8208182"><ele>9.428571428571429</ele><time>2026-04-26T16:25:17.043Z</time></trkpt><trkpt lat="40.5024284" lon="9.8208703"><ele>9.571428571428573</ele><time>2026-04-26T16:25:22.041Z</time></trkpt><trkpt lat="40.5024868" lon="9.8209082"><ele>9.714285714285715</ele><time>2026-04-26T16:25:27.042Z</time></trkpt><trkpt lat="40.5025377" lon="9.8209637"><ele>9.857142857142858</ele><time>2026-04-26T16:25:32.042Z</time></trkpt><trkpt lat="40.5025877" lon="9.8210319"><ele>10.0</ele><time>2026-04-26T16:25:37.042Z</time></trkpt><trkpt lat="40.5026243" lon="9.8211011"><ele>9.571428571428571</ele><time>2026-04-26T16:25:42.042Z</time></trkpt><trkpt lat="40.5026733" lon="9.8211588"><ele>9.142857142857142</ele><time>2026-04-26T16:25:47.042Z</time></trkpt><trkpt lat="40.5027274" lon="9.8212056"><ele>8.714285714285715</ele><time>2026-04-26T16:25:52.042Z</time></trkpt><trkpt lat="40.5027928" lon="9.8212368"><ele>8.285714285714285</ele><time>2026-04-26T16:25:58.045Z</time></trkpt><trkpt lat="40.5028606" lon="9.8212657"><ele>7.857142857142858</ele><time>2026-04-26T16:26:04.026Z</time></trkpt><trkpt lat="40.5029306" lon="9.8212915"><ele>7.428571428571429</ele><time>2026-04-26T16:26:10.043Z</time></trkpt><trkpt lat="40.5029958" lon="9.821312"><ele>7.0</ele><time>2026-04-26T16:26:16.042Z</time></trkpt><trkpt lat="40.5030636" lon="9.8213259"><ele>7.0</ele><time>2026-04-26T16:26:21.946Z</time></trkpt><trkpt lat="40.5031282" lon="9.8213392"><ele>7.0</ele><time>2026-04-26T16:26:27.042Z</time></trkpt><trkpt lat="40.5031887" lon="9.8213628"><ele>7.0</ele><time>2026-04-26T16:26:32.042Z</time></trkpt><trkpt lat="40.5032599" lon="9.8213745"><ele>7.0</ele><time>2026-04-26T16:26:38.043Z</time></trkpt><trkpt lat="40.5033281" lon="9.8213934"><ele>7.0</ele><time>2026-04-26T16:26:44.043Z</time></trkpt><trkpt lat="40.5034007" lon="9.8214044"><ele>7.0</ele><time>2026-04-26T16:26:50.042Z</time></trkpt><trkpt lat="40.5034738" lon="9.8214294"><ele>7.0</ele><time>2026-04-26T16:26:56.043Z</time></trkpt><trkpt lat="40.503547" lon="9.8214443"><ele>7.0</ele><time>2026-04-26T16:27:02.043Z</time></trkpt><trkpt lat="40.5036161" lon="9.8214664"><ele>7.0</ele><time>2026-04-26T16:27:08.043Z</time></trkpt><trkpt lat="40.5036796" lon="9.8214982"><ele>7.0</ele><time>2026-04-26T16:27:14.042Z</time></trkpt><trkpt lat="40.5037523" lon="9.8215181"><ele>7.0</ele><time>2026-04-26T16:27:20.043Z</time></trkpt><trkpt lat="40.5038156" lon="9.8215273"><ele>7.0</ele><time>2026-04-26T16:27:25.042Z</time></trkpt><trkpt lat="40.503885" lon="9.8215352"><ele>7.0</ele><time>2026-04-26T16:27:31.043Z</time></trkpt><trkpt lat="40.503949" lon="9.8215472"><ele>7.0</ele><time>2026-04-26T16:27:36.055Z</time></trkpt><trkpt lat="40.5040093" lon="9.8215736"><ele>7.428571428571429</ele><time>2026-04-26T16:27:41.042Z</time></trkpt><trkpt lat="40.5040835" lon="9.8215832"><ele>7.857142857142858</ele><time>2026-04-26T16:27:47.042Z</time></trkpt><trkpt lat="40.5041507" lon="9.8215977"><ele>8.285714285714285</ele><time>2026-04-26T16:27:53.042Z</time></trkpt><trkpt lat="40.504218" lon="9.8215741"><ele>8.714285714285715</ele><time>2026-04-26T16:27:59.042Z</time></trkpt><trkpt lat="40.5042727" lon="9.8215224"><ele>9.142857142857142</ele><time>2026-04-26T16:28:05.042Z</time></trkpt><trkpt lat="40.504339" lon="9.8214799"><ele>9.571428571428571</ele><time>2026-04-26T16:28:11.042Z</time></trkpt><trkpt lat="40.504404" lon="9.8214368"><ele>10.0</ele><time>2026-04-26T16:28:17.043Z</time></trkpt><trkpt lat="40.5044685" lon="9.8214181"><ele>10.0</ele><time>2026-04-26T16:28:23.042Z</time></trkpt><trkpt lat="40.5045361" lon="9.8214532"><ele>10.0</ele><time>2026-04-26T16:28:29.043Z</time></trkpt><trkpt lat="40.5046075" lon="9.821451"><ele>10.0</ele><time>2026-04-26T16:28:35.042Z</time></trkpt><trkpt lat="40.5046562" lon="9.8213978"><ele>10.0</ele><time>2026-04-26T16:28:40.043Z</time></trkpt><trkpt lat="40.5047247" lon="9.8213722"><ele>10.0</ele><time>2026-04-26T16:28:46.042Z</time></trkpt><trkpt lat="40.5047886" lon="9.82139"><ele>10.0</ele><time>2026-04-26T16:28:52.042Z</time></trkpt><trkpt lat="40.5048619" lon="9.8214132"><ele>10.0</ele><time>2026-04-26T16:28:58.042Z</time></trkpt><trkpt lat="40.5049256" lon="9.8214171"><ele>9.428571428571429</ele><time>2026-04-26T16:29:03.043Z</time></trkpt><trkpt lat="40.5050001" lon="9.8214298"><ele>8.857142857142858</ele><time>2026-04-26T16:29:09.024Z</time></trkpt><trkpt lat="40.5050599" lon="9.8214653"><ele>8.285714285714285</ele><time>2026-04-26T16:29:14.042Z</time></trkpt><trkpt lat="40.5051171" lon="9.8215023"><ele>7.7142857142857135</ele><time>2026-04-26T16:29:19.042Z</time></trkpt><trkpt lat="40.5051898" lon="9.8215063"><ele>7.142857142857142</ele><time>2026-04-26T16:29:25.042Z</time></trkpt><trkpt lat="40.5052503" lon="9.8214665"><ele>6.571428571428571</ele><time>2026-04-26T16:29:31.005Z</time></trkpt><trkpt lat="40.5053206" lon="9.8214609"><ele>6.0</ele><time>2026-04-26T16:29:37.042Z</time></trkpt><trkpt lat="40.5053922" lon="9.8214669"><ele>5.857142857142857</ele><time>2026-04-26T16:29:43.042Z</time></trkpt><trkpt lat="40.5054595" lon="9.8215054"><ele>5.714285714285714</ele><time>2026-04-26T16:29:49.043Z</time></trkpt><trkpt lat="40.5055323" lon="9.8214895"><ele>5.571428571428571</ele><time>2026-04-26T16:29:54.985Z</time></trkpt><trkpt lat="40.5055958" lon="9.8214931"><ele>5.428571428571429</ele><time>2026-04-26T16:30:00.042Z</time></trkpt><trkpt lat="40.5056645" lon="9.8215195"><ele>5.285714285714286</ele><time>2026-04-26T16:30:06.043Z</time></trkpt><trkpt lat="40.5057363" lon="9.8215182"><ele>5.142857142857142</ele><time>2026-04-26T16:30:12.043Z</time></trkpt><trkpt lat="40.5058025" lon="9.821523"><ele>5.0</ele><time>2026-04-26T16:30:18.042Z</time></trkpt><trkpt lat="40.5058433" lon="9.8215875"><ele>5.0</ele><time>2026-04-26T16:30:23.042Z</time></trkpt><trkpt lat="40.5059117" lon="9.8215911"><ele>5.0</ele><time>2026-04-26T16:30:28.042Z</time></trkpt><trkpt lat="40.5059759" lon="9.8216028"><ele>5.0</ele><time>2026-04-26T16:30:32.986Z</time></trkpt><trkpt lat="40.506043" lon="9.8215985"><ele>5.0</ele><time>2026-04-26T16:30:38.042Z</time></trkpt><trkpt lat="40.5061061" lon="9.8216056"><ele>5.0</ele><time>2026-04-26T16:30:43.042Z</time></trkpt><trkpt lat="40.5061797" lon="9.8215919"><ele>5.0</ele><time>2026-04-26T16:30:48.965Z</time></trkpt><trkpt lat="40.5062322" lon="9.821638"><ele>5.0</ele><time>2026-04-26T16:30:54.042Z</time></trkpt><trkpt lat="40.5062809" lon="9.8217065"><ele>5.142857142857142</ele><time>2026-04-26T16:31:00.042Z</time></trkpt><trkpt lat="40.5063225" lon="9.8217801"><ele>5.285714285714286</ele><time>2026-04-26T16:31:06.042Z</time></trkpt><trkpt lat="40.5063867" lon="9.8218249"><ele>5.428571428571429</ele><time>2026-04-26T16:31:12.042Z</time></trkpt><trkpt lat="40.5064355" lon="9.8218859"><ele>5.571428571428571</ele><time>2026-04-26T16:31:18.043Z</time></trkpt><trkpt lat="40.5064657" lon="9.8219751"><ele>5.714285714285714</ele><time>2026-04-26T16:31:24.042Z</time></trkpt><trkpt lat="40.5064869" lon="9.8220637"><ele>5.857142857142857</ele><time>2026-04-26T16:31:30.042Z</time></trkpt><trkpt lat="40.5065468" lon="9.8220909"><ele>6.0</ele><time>2026-04-26T16:31:35.042Z</time></trkpt><trkpt lat="40.5066114" lon="9.8220555"><ele>5.428571428571428</ele><time>2026-04-26T16:31:40.042Z</time></trkpt><trkpt lat="40.5066828" lon="9.8220558"><ele>4.857142857142857</ele><time>2026-04-26T16:31:46.043Z</time></trkpt><trkpt lat="40.5067552" lon="9.8220798"><ele>4.285714285714286</ele><time>2026-04-26T16:31:52.043Z</time></trkpt><trkpt lat="40.506817" lon="9.82214"><ele>3.714285714285714</ele><time>2026-04-26T16:31:58.042Z</time></trkpt><trkpt lat="40.5068835" lon="9.8221447"><ele>3.1428571428571423</ele><time>2026-04-26T16:32:02.948Z</time></trkpt><trkpt lat="40.5069512" lon="9.8221153"><ele>2.571428571428571</ele><time>2026-04-26T16:32:09.043Z</time></trkpt><trkpt lat="40.5070102" lon="9.822086"><ele>2.0</ele><time>2026-04-26T16:32:14.042Z</time></trkpt><trkpt lat="40.5070733" lon="9.8220886"><ele>2.2857142857142856</ele><time>2026-04-26T16:32:19.042Z</time></trkpt><trkpt lat="40.5071371" lon="9.8220903"><ele>2.571428571428571</ele><time>2026-04-26T16:32:23.982Z</time></trkpt><trkpt lat="40.507201" lon="9.8221037"><ele>2.8571428571428568</ele><time>2026-04-26T16:32:29.043Z</time></trkpt><trkpt lat="40.5072621" lon="9.8221368"><ele>3.142857142857143</ele><time>2026-04-26T16:32:34.042Z</time></trkpt><trkpt lat="40.5073261" lon="9.8221605"><ele>3.428571428571428</ele><time>2026-04-26T16:32:39.01Z</time></trkpt><trkpt lat="40.5073854" lon="9.8221117"><ele>3.714285714285714</ele><time>2026-04-26T16:32:45.043Z</time></trkpt><trkpt lat="40.5074552" lon="9.82209"><ele>4.0</ele><time>2026-04-26T16:32:51.042Z</time></trkpt><trkpt lat="40.5075229" lon="9.8221129"><ele>4.0</ele><time>2026-04-26T16:32:56.96Z</time></trkpt><trkpt lat="40.5075905" lon="9.822083"><ele>3.9999999999999996</ele><time>2026-04-26T16:33:03.042Z</time></trkpt><trkpt lat="40.5076462" lon="9.8220444"><ele>4.0</ele><time>2026-04-26T16:33:08.043Z</time></trkpt><trkpt lat="40.5077153" lon="9.8220391"><ele>4.0</ele><time>2026-04-26T16:33:14.042Z</time></trkpt><trkpt lat="40.507776" lon="9.8220639"><ele>3.9999999999999996</ele><time>2026-04-26T16:33:20.042Z</time></trkpt><trkpt lat="40.5078163" lon="9.8219973"><ele>4.0</ele><time>2026-04-26T16:33:24.042Z</time></trkpt><trkpt lat="40.507878" lon="9.8219655"><ele>4.0</ele><time>2026-04-26T16:33:30.043Z</time></trkpt><trkpt lat="40.507947" lon="9.8219942"><ele>4.142857142857142</ele><time>2026-04-26T16:33:38.043Z</time></trkpt><trkpt lat="40.50802" lon="9.8220082"><ele>4.285714285714286</ele><time>2026-04-26T16:33:44.043Z</time></trkpt><trkpt lat="40.508081" lon="9.8220533"><ele>4.428571428571429</ele><time>2026-04-26T16:33:50.029Z</time></trkpt><trkpt lat="40.5081047" lon="9.8221403"><ele>4.571428571428571</ele><time>2026-04-26T16:33:54.948Z</time></trkpt><trkpt lat="40.5081437" lon="9.8222228"><ele>4.714285714285714</ele><time>2026-04-26T16:34:01.042Z</time></trkpt><trkpt lat="40.5081853" lon="9.8223045"><ele>4.857142857142857</ele><time>2026-04-26T16:34:07.043Z</time></trkpt><trkpt lat="40.5082478" lon="9.8223212"><ele>5.0</ele><time>2026-04-26T16:34:12.043Z</time></trkpt><trkpt lat="40.5083182" lon="9.8223134"><ele>5.0</ele><time>2026-04-26T16:34:18.043Z</time></trkpt><trkpt lat="40.5083653" lon="9.8223808"><ele>5.0</ele><time>2026-04-26T16:34:23.042Z</time></trkpt><trkpt lat="40.5084211" lon="9.8224276"><ele>5.0</ele><time>2026-04-26T16:34:28.042Z</time></trkpt><trkpt lat="40.508482" lon="9.8224512"><ele>5.0</ele><time>2026-04-26T16:34:33.043Z</time></trkpt><trkpt lat="40.5085429" lon="9.822482"><ele>5.0</ele><time>2026-04-26T16:34:38.042Z</time></trkpt><trkpt lat="40.5085754" lon="9.8225548"><ele>5.0</ele><time>2026-04-26T16:34:43.043Z</time></trkpt><trkpt lat="40.5086058" lon="9.8226285"><ele>5.0</ele><time>2026-04-26T16:34:48.034Z</time></trkpt><trkpt lat="40.5086395" lon="9.8227139"><ele>4.714285714285714</ele><time>2026-04-26T16:34:54.042Z</time></trkpt><trkpt lat="40.5086489" lon="9.8227975"><ele>4.428571428571429</ele><time>2026-04-26T16:34:59.043Z</time></trkpt><trkpt lat="40.5086514" lon="9.8228835"><ele>4.142857142857142</ele><time>2026-04-26T16:35:04.042Z</time></trkpt><trkpt lat="40.5086748" lon="9.8229744"><ele>3.8571428571428568</ele><time>2026-04-26T16:35:11.042Z</time></trkpt><trkpt lat="40.5087119" lon="9.823048"><ele>3.571428571428571</ele><time>2026-04-26T16:35:17.042Z</time></trkpt><trkpt lat="40.5087688" lon="9.8230915"><ele>3.2857142857142856</ele><time>2026-04-26T16:35:28.043Z</time></trkpt><trkpt lat="40.5088302" lon="9.8231296"><ele>3.0</ele><time>2026-04-26T16:35:35.042Z</time></trkpt><trkpt lat="40.5088521" lon="9.8232215"><ele>2.9999999999999996</ele><time>2026-04-26T16:35:41.042Z</time></trkpt><trkpt lat="40.5088386" lon="9.8233059"><ele>3.0</ele><time>2026-04-26T16:35:47.042Z</time></trkpt><trkpt lat="40.5088668" lon="9.8233938"><ele>3.0</ele><time>2026-04-26T16:35:54.044Z</time></trkpt><trkpt lat="40.5089308" lon="9.8234285"><ele>3.0</ele><time>2026-04-26T16:36:00.043Z</time></trkpt><trkpt lat="40.5089817" lon="9.823487"><ele>3.0</ele><time>2026-04-26T16:36:07.042Z</time></trkpt><trkpt lat="40.508993" lon="9.8235707"><ele>2.9999999999999996</ele><time>2026-04-26T16:36:13.042Z</time></trkpt><trkpt lat="40.5090587" lon="9.8236144"><ele>3.0</ele><time>2026-04-26T16:36:19.042Z</time></trkpt><trkpt lat="40.5091233" lon="9.8236253"><ele>3.1428571428571423</ele><time>2026-04-26T16:36:25.043Z</time></trkpt><trkpt lat="40.5091619" lon="9.8236971"><ele>3.2857142857142856</ele><time>2026-04-26T16:36:31.042Z</time></trkpt><trkpt lat="40.5091953" lon="9.8237777"><ele>3.4285714285714284</ele><time>2026-04-26T16:36:37.042Z</time></trkpt><trkpt lat="40.509239" lon="9.8238478"><ele>3.571428571428571</ele><time>2026-04-26T16:36:43.042Z</time></trkpt><trkpt lat="40.5092605" lon="9.8239344"><ele>3.714285714285714</ele><time>2026-04-26T16:36:49.042Z</time></trkpt><trkpt lat="40.5093113" lon="9.8240008"><ele>3.8571428571428568</ele><time>2026-04-26T16:36:55.042Z</time></trkpt><trkpt lat="40.5093368" lon="9.8240839"><ele>4.0</ele><time>2026-04-26T16:37:00.043Z</time></trkpt><trkpt lat="40.5093911" lon="9.8241413"><ele>4.0</ele><time>2026-04-26T16:37:06.042Z</time></trkpt><trkpt lat="40.5094611" lon="9.824164"><ele>3.9999999999999996</ele><time>2026-04-26T16:37:11.921Z</time></trkpt><trkpt lat="40.5095123" lon="9.824238"><ele>4.0</ele><time>2026-04-26T16:37:18.067Z</time></trkpt><trkpt lat="40.5095169" lon="9.8243225"><ele>4.0</ele><time>2026-04-26T16:37:22.965Z</time></trkpt><trkpt lat="40.509546" lon="9.8244118"><ele>3.9999999999999996</ele><time>2026-04-26T16:37:29.042Z</time></trkpt><trkpt lat="40.5096105" lon="9.8244446"><ele>4.0</ele><time>2026-04-26T16:37:35.02Z</time></trkpt><trkpt lat="40.5095992" lon="9.8245427"><ele>4.0</ele><time>2026-04-26T16:37:41.043Z</time></trkpt><trkpt lat="40.5096402" lon="9.8246172"><ele>3.8571428571428568</ele><time>2026-04-26T16:37:47.043Z</time></trkpt><trkpt lat="40.5096878" lon="9.8246791"><ele>3.714285714285714</ele><time>2026-04-26T16:37:52.042Z</time></trkpt><trkpt lat="40.5097427" lon="9.8247409"><ele>3.571428571428571</ele><time>2026-04-26T16:37:58.025Z</time></trkpt><trkpt lat="40.5097983" lon="9.8247958"><ele>3.4285714285714284</ele><time>2026-04-26T16:38:03.972Z</time></trkpt><trkpt lat="40.5098633" lon="9.8247596"><ele>3.2857142857142856</ele><time>2026-04-26T16:38:09.943Z</time></trkpt><trkpt lat="40.5099301" lon="9.8247185"><ele>3.1428571428571423</ele><time>2026-04-26T16:38:16.004Z</time></trkpt><trkpt lat="40.5099631" lon="9.8246356"><ele>3.0</ele><time>2026-04-26T16:38:22.043Z</time></trkpt><trkpt lat="40.5100268" lon="9.8245956"><ele>2.9999999999999996</ele><time>2026-04-26T16:38:28.042Z</time></trkpt><trkpt lat="40.5101003" lon="9.8245823"><ele>3.0</ele><time>2026-04-26T16:38:34.042Z</time></trkpt><trkpt lat="40.5101686" lon="9.8245449"><ele>3.0</ele><time>2026-04-26T16:38:40.042Z</time></trkpt><trkpt lat="40.5102027" lon="9.8244727"><ele>3.0</ele><time>2026-04-26T16:38:45.042Z</time></trkpt><trkpt lat="40.5102667" lon="9.8244733"><ele>3.0</ele><time>2026-04-26T16:38:50.042Z</time></trkpt><trkpt lat="40.5103278" lon="9.824418"><ele>2.9999999999999996</ele><time>2026-04-26T16:38:56.042Z</time></trkpt><trkpt lat="40.5103694" lon="9.8243415"><ele>3.0</ele><time>2026-04-26T16:39:02.042Z</time></trkpt><trkpt lat="40.5104397" lon="9.8243168"><ele>2.9999999999999996</ele><time>2026-04-26T16:39:10.043Z</time></trkpt><trkpt lat="40.5105072" lon="9.8243029"><ele>3.0</ele><time>2026-04-26T16:39:16.042Z</time></trkpt><trkpt lat="40.5105683" lon="9.8243317"><ele>3.0</ele><time>2026-04-26T16:39:21.951Z</time></trkpt><trkpt lat="40.5106007" lon="9.8242585"><ele>3.0</ele><time>2026-04-26T16:39:27.042Z</time></trkpt><trkpt lat="40.5106261" lon="9.8241808"><ele>3.0</ele><time>2026-04-26T16:39:32.958Z</time></trkpt><trkpt lat="40.5106965" lon="9.8241651"><ele>2.9999999999999996</ele><time>2026-04-26T16:39:39.042Z</time></trkpt><trkpt lat="40.5107628" lon="9.824206"><ele>3.0</ele><time>2026-04-26T16:39:46.043Z</time></trkpt><trkpt lat="40.5108257" lon="9.8242157"><ele>2.9999999999999996</ele><time>2026-04-26T16:39:52.043Z</time></trkpt><trkpt lat="40.510882" lon="9.8242732"><ele>3.0</ele><time>2026-04-26T16:39:59.042Z</time></trkpt><trkpt lat="40.5109082" lon="9.8243513"><ele>3.0</ele><time>2026-04-26T16:40:05.042Z</time></trkpt><trkpt lat="40.5109643" lon="9.8244089"><ele>3.0</ele><time>2026-04-26T16:40:12.046Z</time></trkpt><trkpt lat="40.511005" lon="9.8244741"><ele>3.0</ele><time>2026-04-26T16:40:18.042Z</time></trkpt><trkpt lat="40.5110205" lon="9.824564"><ele>2.9999999999999996</ele><time>2026-04-26T16:40:24.042Z</time></trkpt><trkpt lat="40.5110853" lon="9.8246026"><ele>3.0</ele><time>2026-04-26T16:40:30.043Z</time></trkpt><trkpt lat="40.5111436" lon="9.8246536"><ele>2.9999999999999996</ele><time>2026-04-26T16:40:36.043Z</time></trkpt><trkpt lat="40.5112048" lon="9.8246916"><ele>3.0</ele><time>2026-04-26T16:40:42.042Z</time></trkpt><trkpt lat="40.5112723" lon="9.8247032"><ele>3.0</ele><time>2026-04-26T16:40:48.042Z</time></trkpt><trkpt lat="40.5113374" lon="9.8247354"><ele>3.0</ele><time>2026-04-26T16:40:54.042Z</time></trkpt><trkpt lat="40.5114055" lon="9.8247634"><ele>3.0</ele><time>2026-04-26T16:41:00.043Z</time></trkpt><trkpt lat="40.5114727" lon="9.8247527"><ele>2.9999999999999996</ele><time>2026-04-26T16:41:06.042Z</time></trkpt><trkpt lat="40.5115444" lon="9.8247708"><ele>3.0</ele><time>2026-04-26T16:41:12.042Z</time></trkpt><trkpt lat="40.5116141" lon="9.8247734"><ele>3.1428571428571423</ele><time>2026-04-26T16:41:33.042Z</time></trkpt><trkpt lat="40.5116867" lon="9.8247574"><ele>3.2857142857142856</ele><time>2026-04-26T16:41:39.042Z</time></trkpt><trkpt lat="40.5117563" lon="9.8247741"><ele>3.4285714285714284</ele><time>2026-04-26T16:41:45.042Z</time></trkpt><trkpt lat="40.5118241" lon="9.8247901"><ele>3.571428571428571</ele><time>2026-04-26T16:41:50.98Z</time></trkpt><trkpt lat="40.5118957" lon="9.8247967"><ele>3.714285714285714</ele><time>2026-04-26T16:41:57.006Z</time></trkpt><trkpt lat="40.5119608" lon="9.8247765"><ele>3.8571428571428568</ele><time>2026-04-26T16:42:03.042Z</time></trkpt><trkpt lat="40.5120124" lon="9.8248421"><ele>4.0</ele><time>2026-04-26T16:42:09.042Z</time></trkpt><trkpt lat="40.5120686" lon="9.8248928"><ele>4.428571428571429</ele><time>2026-04-26T16:42:15.048Z</time></trkpt><trkpt lat="40.5121304" lon="9.8249334"><ele>4.857142857142857</ele><time>2026-04-26T16:42:21.043Z</time></trkpt><trkpt lat="40.512186" lon="9.8249892"><ele>5.285714285714286</ele><time>2026-04-26T16:42:26.976Z</time></trkpt><trkpt lat="40.5122449" lon="9.8250393"><ele>5.714285714285714</ele><time>2026-04-26T16:42:33.042Z</time></trkpt><trkpt lat="40.512305" lon="9.8250897"><ele>6.142857142857142</ele><time>2026-04-26T16:42:38.973Z</time></trkpt><trkpt lat="40.5123619" lon="9.8251461"><ele>6.571428571428571</ele><time>2026-04-26T16:42:45.042Z</time></trkpt><trkpt lat="40.5124236" lon="9.8251962"><ele>7.0</ele><time>2026-04-26T16:42:51.043Z</time></trkpt><trkpt lat="40.5124731" lon="9.8252723"><ele>7.0</ele><time>2026-04-26T16:42:57.045Z</time></trkpt><trkpt lat="40.5125076" lon="9.825356"><ele>7.0</ele><time>2026-04-26T16:43:03.05Z</time></trkpt><trkpt lat="40.5125558" lon="9.8254311"><ele>7.0</ele><time>2026-04-26T16:43:09.042Z</time></trkpt><trkpt lat="40.5126168" lon="9.8254871"><ele>7.0</ele><time>2026-04-26T16:43:15.043Z</time></trkpt><trkpt lat="40.5126718" lon="9.8255524"><ele>7.0</ele><time>2026-04-26T16:43:21.043Z</time></trkpt><trkpt lat="40.5127101" lon="9.8256361"><ele>7.0</ele><time>2026-04-26T16:43:27.043Z</time></trkpt><trkpt lat="40.5127589" lon="9.8257036"><ele>7.0</ele><time>2026-04-26T16:43:33.012Z</time></trkpt><trkpt lat="40.5127954" lon="9.8257901"><ele>7.0</ele><time>2026-04-26T16:43:40.043Z</time></trkpt><trkpt lat="40.512807" lon="9.825881"><ele>7.0</ele><time>2026-04-26T16:43:46.008Z</time></trkpt><trkpt lat="40.5128437" lon="9.8259534"><ele>7.0</ele><time>2026-04-26T16:43:52.042Z</time></trkpt><trkpt lat="40.5128694" lon="9.8260305"><ele>7.0</ele><time>2026-04-26T16:43:58.045Z</time></trkpt><trkpt lat="40.512888" lon="9.8261145"><ele>7.0</ele><time>2026-04-26T16:44:05.043Z</time></trkpt><trkpt lat="40.5129238" lon="9.8261879"><ele>7.0</ele><time>2026-04-26T16:44:11.043Z</time></trkpt><trkpt lat="40.5129881" lon="9.8262377"><ele>7.0</ele><time>2026-04-26T16:44:18.043Z</time></trkpt><trkpt lat="40.5130493" lon="9.8262825"><ele>6.428571428571429</ele><time>2026-04-26T16:44:25.042Z</time></trkpt><trkpt lat="40.5131172" lon="9.8263136"><ele>5.857142857142857</ele><time>2026-04-26T16:44:32.042Z</time></trkpt><trkpt lat="40.5132039" lon="9.8263706"><ele>5.285714285714286</ele><time>2026-04-26T16:45:03.042Z</time></trkpt><trkpt lat="40.5132736" lon="9.8263632"><ele>4.714285714285714</ele><time>2026-04-26T16:45:08.968Z</time></trkpt><trkpt lat="40.5133127" lon="9.826298"><ele>4.142857142857142</ele><time>2026-04-26T16:45:14.043Z</time></trkpt><trkpt lat="40.5133781" lon="9.8262926"><ele>3.571428571428571</ele><time>2026-04-26T16:45:20.042Z</time></trkpt><trkpt lat="40.5134523" lon="9.8262901"><ele>3.0</ele><time>2026-04-26T16:45:26.043Z</time></trkpt><trkpt lat="40.5135244" lon="9.8262729"><ele>2.9999999999999996</ele><time>2026-04-26T16:45:32.029Z</time></trkpt><trkpt lat="40.5135882" lon="9.8262627"><ele>3.0</ele><time>2026-04-26T16:45:38.041Z</time></trkpt><trkpt lat="40.5136595" lon="9.8262603"><ele>3.0</ele><time>2026-04-26T16:45:44.041Z</time></trkpt><trkpt lat="40.5137263" lon="9.8262518"><ele>3.0</ele><time>2026-04-26T16:45:50.041Z</time></trkpt><trkpt lat="40.5137782" lon="9.8261997"><ele>3.0</ele><time>2026-04-26T16:45:54.946Z</time></trkpt><trkpt lat="40.5138441" lon="9.8261715"><ele>2.9999999999999996</ele><time>2026-04-26T16:46:00.859Z</time></trkpt><trkpt lat="40.5139102" lon="9.8261648"><ele>3.0</ele><time>2026-04-26T16:46:06.042Z</time></trkpt><trkpt lat="40.5139833" lon="9.8261687"><ele>2.571428571428571</ele><time>2026-04-26T16:46:12.041Z</time></trkpt><trkpt lat="40.5140525" lon="9.8261388"><ele>2.142857142857143</ele><time>2026-04-26T16:46:18.041Z</time></trkpt><trkpt lat="40.5141166" lon="9.8261291"><ele>1.7142857142857142</ele><time>2026-04-26T16:46:23.041Z</time></trkpt><trkpt lat="40.5141805" lon="9.8261142"><ele>1.2857142857142856</ele><time>2026-04-26T16:46:27.99Z</time></trkpt><trkpt lat="40.5142462" lon="9.8260922"><ele>0.8571428571428571</ele><time>2026-04-26T16:46:33.041Z</time></trkpt><trkpt lat="40.5143231" lon="9.8260768"><ele>0.42857142857142855</ele><time>2026-04-26T16:46:39.041Z</time></trkpt><trkpt lat="40.5143838" lon="9.8260513"><ele>0.0</ele><time>2026-04-26T16:46:44.041Z</time></trkpt><trkpt lat="40.5144446" lon="9.8260288"><ele>0.0</ele><time>2026-04-26T16:46:49.041Z</time></trkpt><trkpt lat="40.5145055" lon="9.825991"><ele>0.0</ele><time>2026-04-26T16:46:54.041Z</time></trkpt><trkpt lat="40.5145638" lon="9.8259367"><ele>0.0</ele><time>2026-04-26T16:47:00.041Z</time></trkpt><trkpt lat="40.5146067" lon="9.8258563"><ele>0.0</ele><time>2026-04-26T16:47:06.042Z</time></trkpt><trkpt lat="40.5146723" lon="9.8258201"><ele>0.0</ele><time>2026-04-26T16:47:12.042Z</time></trkpt><trkpt lat="40.5147432" lon="9.8258003"><ele>0.0</ele><time>2026-04-26T16:47:18.041Z</time></trkpt><trkpt lat="40.5148099" lon="9.825815"><ele>0.0</ele><time>2026-04-26T16:47:23.041Z</time></trkpt><trkpt lat="40.5148751" lon="9.825806"><ele>0.42857142857142855</ele><time>2026-04-26T16:47:28.998Z</time></trkpt><trkpt lat="40.5149359" lon="9.8257782"><ele>0.8571428571428571</ele><time>2026-04-26T16:47:34.041Z</time></trkpt><trkpt lat="40.5149996" lon="9.825737"><ele>1.2857142857142856</ele><time>2026-04-26T16:47:40.041Z</time></trkpt><trkpt lat="40.515063" lon="9.8256819"><ele>1.7142857142857142</ele><time>2026-04-26T16:47:46.041Z</time></trkpt><trkpt lat="40.5151348" lon="9.8256614"><ele>2.142857142857143</ele><time>2026-04-26T16:47:52.042Z</time></trkpt><trkpt lat="40.515208" lon="9.8256756"><ele>2.571428571428571</ele><time>2026-04-26T16:47:58.042Z</time></trkpt><trkpt lat="40.5152728" lon="9.8256786"><ele>3.0</ele><time>2026-04-26T16:48:03.042Z</time></trkpt><trkpt lat="40.5153348" lon="9.8256434"><ele>2.9999999999999996</ele><time>2026-04-26T16:48:08.041Z</time></trkpt><trkpt lat="40.5153969" lon="9.8256774"><ele>3.0</ele><time>2026-04-26T16:48:19.009Z</time></trkpt><trkpt lat="40.5154673" lon="9.8256924"><ele>3.0</ele><time>2026-04-26T16:48:23.041Z</time></trkpt><trkpt lat="40.5155361" lon="9.8257057"><ele>3.0</ele><time>2026-04-26T16:48:28.041Z</time></trkpt><trkpt lat="40.5156004" lon="9.8256944"><ele>3.0</ele><time>2026-04-26T16:48:33.041Z</time></trkpt><trkpt lat="40.5156654" lon="9.8257103"><ele>2.9999999999999996</ele><time>2026-04-26T16:48:38.041Z</time></trkpt><trkpt lat="40.5157291" lon="9.8257332"><ele>3.0</ele><time>2026-04-26T16:48:42.965Z</time></trkpt><trkpt lat="40.5157976" lon="9.8257555"><ele>3.1428571428571423</ele><time>2026-04-26T16:48:48.041Z</time></trkpt><trkpt lat="40.5158628" lon="9.8257773"><ele>3.2857142857142856</ele><time>2026-04-26T16:48:53.041Z</time></trkpt><trkpt lat="40.5159376" lon="9.8257947"><ele>3.4285714285714284</ele><time>2026-04-26T16:48:59.041Z</time></trkpt><trkpt lat="40.5160042" lon="9.8258082"><ele>3.571428571428571</ele><time>2026-04-26T16:49:04.041Z</time></trkpt><trkpt lat="40.5160697" lon="9.8258309"><ele>3.714285714285714</ele><time>2026-04-26T16:49:09.042Z</time></trkpt><trkpt lat="40.5161379" lon="9.8258496"><ele>3.8571428571428568</ele><time>2026-04-26T16:49:14.041Z</time></trkpt><trkpt lat="40.5162056" lon="9.8258565"><ele>4.0</ele><time>2026-04-26T16:49:19.041Z</time></trkpt><trkpt lat="40.5162676" lon="9.8258405"><ele>4.0</ele><time>2026-04-26T16:49:24.041Z</time></trkpt><trkpt lat="40.5163265" lon="9.825809"><ele>3.9999999999999996</ele><time>2026-04-26T16:49:28.984Z</time></trkpt><trkpt lat="40.5163935" lon="9.8257973"><ele>4.0</ele><time>2026-04-26T16:49:34.041Z</time></trkpt><trkpt lat="40.5164648" lon="9.8257981"><ele>4.0</ele><time>2026-04-26T16:49:40.041Z</time></trkpt><trkpt lat="40.5165286" lon="9.8258027"><ele>3.9999999999999996</ele><time>2026-04-26T16:49:45.042Z</time></trkpt><trkpt lat="40.5165938" lon="9.8258055"><ele>4.0</ele><time>2026-04-26T16:49:50.042Z</time></trkpt><trkpt lat="40.5166666" lon="9.825793"><ele>4.0</ele><time>2026-04-26T16:49:56.041Z</time></trkpt><trkpt lat="40.5167235" lon="9.8257575"><ele>4.0</ele><time>2026-04-26T16:50:01.042Z</time></trkpt><trkpt lat="40.5167743" lon="9.8257026"><ele>3.9999999999999996</ele><time>2026-04-26T16:50:06.065Z</time></trkpt><trkpt lat="40.5168356" lon="9.8256523"><ele>4.0</ele><time>2026-04-26T16:50:12.004Z</time></trkpt><trkpt lat="40.5168999" lon="9.8256237"><ele>4.0</ele><time>2026-04-26T16:50:17.041Z</time></trkpt><trkpt lat="40.5169713" lon="9.8256232"><ele>3.9999999999999996</ele><time>2026-04-26T16:50:22.042Z</time></trkpt><trkpt lat="40.5170423" lon="9.8256194"><ele>4.0</ele><time>2026-04-26T16:50:28.041Z</time></trkpt><trkpt lat="40.5171065" lon="9.8256171"><ele>4.0</ele><time>2026-04-26T16:50:33.041Z</time></trkpt><trkpt lat="40.5171713" lon="9.8255831"><ele>3.8571428571428568</ele><time>2026-04-26T16:50:38.041Z</time></trkpt><trkpt lat="40.5172313" lon="9.8255438"><ele>3.714285714285714</ele><time>2026-04-26T16:50:43.041Z</time></trkpt><trkpt lat="40.5172975" lon="9.8255001"><ele>3.571428571428571</ele><time>2026-04-26T16:50:49.041Z</time></trkpt><trkpt lat="40.5173645" lon="9.8254953"><ele>3.4285714285714284</ele><time>2026-04-26T16:50:54.042Z</time></trkpt><trkpt lat="40.5174334" lon="9.825465"><ele>3.2857142857142856</ele><time>2026-04-26T16:51:00.041Z</time></trkpt><trkpt lat="40.5174909" lon="9.8254266"><ele>3.1428571428571423</ele><time>2026-04-26T16:51:04.987Z</time></trkpt><trkpt lat="40.5175509" lon="9.8253989"><ele>3.0</ele><time>2026-04-26T16:51:10.041Z</time></trkpt><trkpt lat="40.5176103" lon="9.8253684"><ele>2.9999999999999996</ele><time>2026-04-26T16:51:15.041Z</time></trkpt><trkpt lat="40.5176841" lon="9.8253276"><ele>3.0</ele><time>2026-04-26T16:51:21.041Z</time></trkpt><trkpt lat="40.5177505" lon="9.825297"><ele>3.0</ele><time>2026-04-26T16:51:27.041Z</time></trkpt><trkpt lat="40.5178115" lon="9.8252646"><ele>3.0</ele><time>2026-04-26T16:51:32.047Z</time></trkpt><trkpt lat="40.5178101" lon="9.8251754"><ele>3.0</ele><time>2026-04-26T16:51:38.041Z</time></trkpt><trkpt lat="40.5178831" lon="9.825148"><ele>2.9999999999999996</ele><time>2026-04-26T16:51:43.041Z</time></trkpt><trkpt lat="40.5179573" lon="9.8251426"><ele>3.0</ele><time>2026-04-26T16:51:49.041Z</time></trkpt><trkpt lat="40.5180221" lon="9.82512"><ele>3.1428571428571423</ele><time>2026-04-26T16:51:54.041Z</time></trkpt><trkpt lat="40.5180833" lon="9.8250994"><ele>3.2857142857142856</ele><time>2026-04-26T16:51:59.042Z</time></trkpt><trkpt lat="40.5181516" lon="9.8250471"><ele>3.4285714285714284</ele><time>2026-04-26T16:52:04.943Z</time></trkpt><trkpt lat="40.5182193" lon="9.8250099"><ele>3.571428571428571</ele><time>2026-04-26T16:52:11.041Z</time></trkpt><trkpt lat="40.518284" lon="9.8249639"><ele>3.714285714285714</ele><time>2026-04-26T16:52:16.985Z</time></trkpt><trkpt lat="40.5183343" lon="9.8249039"><ele>3.8571428571428568</ele><time>2026-04-26T16:52:22.041Z</time></trkpt><trkpt lat="40.5183893" lon="9.8248592"><ele>4.0</ele><time>2026-04-26T16:52:27.025Z</time></trkpt><trkpt lat="40.5184541" lon="9.8248159"><ele>4.0</ele><time>2026-04-26T16:52:33.005Z</time></trkpt><trkpt lat="40.5185159" lon="9.8247747"><ele>3.9999999999999996</ele><time>2026-04-26T16:52:38.99Z</time></trkpt><trkpt lat="40.5185876" lon="9.8247487"><ele>4.0</ele><time>2026-04-26T16:52:45.041Z</time></trkpt><trkpt lat="40.5186588" lon="9.8247428"><ele>4.0</ele><time>2026-04-26T16:52:50.961Z</time></trkpt><trkpt lat="40.5187335" lon="9.8247497"><ele>3.9999999999999996</ele><time>2026-04-26T16:52:57.042Z</time></trkpt><trkpt lat="40.5188055" lon="9.8247512"><ele>4.0</ele><time>2026-04-26T16:53:03.021Z</time></trkpt><trkpt lat="40.5188746" lon="9.8247161"><ele>4.0</ele><time>2026-04-26T16:53:09.041Z</time></trkpt><trkpt lat="40.5189397" lon="9.8247026"><ele>3.714285714285714</ele><time>2026-04-26T16:53:15.041Z</time></trkpt><trkpt lat="40.5190108" lon="9.8247158"><ele>3.428571428571428</ele><time>2026-04-26T16:53:26.041Z</time></trkpt><trkpt lat="40.5190514" lon="9.8246158"><ele>3.142857142857143</ele><time>2026-04-26T16:53:31.041Z</time></trkpt><trkpt lat="40.5190969" lon="9.8245332"><ele>2.8571428571428568</ele><time>2026-04-26T16:53:36.041Z</time></trkpt><trkpt lat="40.5191572" lon="9.824486"><ele>2.571428571428571</ele><time>2026-04-26T16:53:42.041Z</time></trkpt><trkpt lat="40.5192263" lon="9.8245055"><ele>2.2857142857142856</ele><time>2026-04-26T16:53:47.05Z</time></trkpt><trkpt lat="40.51929" lon="9.8245094"><ele>2.0</ele><time>2026-04-26T16:53:52.02Z</time></trkpt><trkpt lat="40.5193562" lon="9.8245007"><ele>2.0</ele><time>2026-04-26T16:53:58.041Z</time></trkpt><trkpt lat="40.5194276" lon="9.82452"><ele>1.9999999999999998</ele><time>2026-04-26T16:54:04.041Z</time></trkpt><trkpt lat="40.5194839" lon="9.8245604"><ele>2.0</ele><time>2026-04-26T16:54:09.041Z</time></trkpt><trkpt lat="40.5195328" lon="9.8246339"><ele>2.0</ele><time>2026-04-26T16:54:15.042Z</time></trkpt><trkpt lat="40.5195857" lon="9.8246872"><ele>1.9999999999999998</ele><time>2026-04-26T16:54:20.041Z</time></trkpt><trkpt lat="40.5196599" lon="9.8246896"><ele>2.0</ele><time>2026-04-26T16:54:25.941Z</time></trkpt><trkpt lat="40.5197256" lon="9.8246799"><ele>2.0</ele><time>2026-04-26T16:54:31.041Z</time></trkpt><trkpt lat="40.5197985" lon="9.8246681"><ele>2.142857142857143</ele><time>2026-04-26T16:54:37.042Z</time></trkpt><trkpt lat="40.5198667" lon="9.8246868"><ele>2.2857142857142856</ele><time>2026-04-26T16:54:42.042Z</time></trkpt><trkpt lat="40.5199285" lon="9.8247406"><ele>2.4285714285714284</ele><time>2026-04-26T16:54:48.041Z</time></trkpt><trkpt lat="40.5199787" lon="9.8247926"><ele>2.571428571428571</ele><time>2026-04-26T16:54:53.041Z</time></trkpt><trkpt lat="40.5199947" lon="9.8248873"><ele>2.7142857142857144</ele><time>2026-04-26T16:54:58.987Z</time></trkpt><trkpt lat="40.5200445" lon="9.8249507"><ele>2.8571428571428568</ele><time>2026-04-26T16:55:04.041Z</time></trkpt><trkpt lat="40.5201101" lon="9.8249866"><ele>3.0</ele><time>2026-04-26T16:55:09.042Z</time></trkpt><trkpt lat="40.5201774" lon="9.8250111"><ele>2.9999999999999996</ele><time>2026-04-26T16:55:15.042Z</time></trkpt><trkpt lat="40.5202477" lon="9.8250414"><ele>3.0</ele><time>2026-04-26T16:55:22.02Z</time></trkpt><trkpt lat="40.5203168" lon="9.8250663"><ele>3.0</ele><time>2026-04-26T16:55:28.042Z</time></trkpt><trkpt lat="40.5203791" lon="9.8251035"><ele>3.0</ele><time>2026-04-26T16:55:34.041Z</time></trkpt><trkpt lat="40.520454" lon="9.8250987"><ele>3.0</ele><time>2026-04-26T16:55:40.041Z</time></trkpt><trkpt lat="40.5205188" lon="9.8251223"><ele>2.9999999999999996</ele><time>2026-04-26T16:55:46.03Z</time></trkpt><trkpt lat="40.5205791" lon="9.8251732"><ele>3.0</ele><time>2026-04-26T16:55:52.042Z</time></trkpt><trkpt lat="40.5206355" lon="9.8252241"><ele>2.9999999999999996</ele><time>2026-04-26T16:55:58.05Z</time></trkpt><trkpt lat="40.5206907" lon="9.8252788"><ele>3.0</ele><time>2026-04-26T16:56:04.041Z</time></trkpt><trkpt lat="40.520744" lon="9.8253393"><ele>3.0</ele><time>2026-04-26T16:56:10.041Z</time></trkpt><trkpt lat="40.5208025" lon="9.8253915"><ele>3.0</ele><time>2026-04-26T16:56:16.041Z</time></trkpt><trkpt lat="40.520869" lon="9.8254321"><ele>3.0</ele><time>2026-04-26T16:56:22.041Z</time></trkpt><trkpt lat="40.5209199" lon="9.8254959"><ele>2.9999999999999996</ele><time>2026-04-26T16:56:28.041Z</time></trkpt><trkpt lat="40.5209943" lon="9.8255151"><ele>3.0</ele><time>2026-04-26T16:56:34.041Z</time></trkpt><trkpt lat="40.5210581" lon="9.8255317"><ele>2.9999999999999996</ele><time>2026-04-26T16:56:39.041Z</time></trkpt><trkpt lat="40.5211311" lon="9.8255497"><ele>3.0</ele><time>2026-04-26T16:56:44.977Z</time></trkpt><trkpt lat="40.521201" lon="9.8255453"><ele>3.0</ele><time>2026-04-26T16:56:51.041Z</time></trkpt><trkpt lat="40.5212731" lon="9.8255243"><ele>3.0</ele><time>2026-04-26T16:56:57.041Z</time></trkpt><trkpt lat="40.5213445" lon="9.8255222"><ele>3.0</ele><time>2026-04-26T16:57:03.041Z</time></trkpt><trkpt lat="40.5214047" lon="9.8254728"><ele>2.9999999999999996</ele><time>2026-04-26T16:57:09.041Z</time></trkpt><trkpt lat="40.5214771" lon="9.8254554"><ele>3.0</ele><time>2026-04-26T16:57:15.041Z</time></trkpt><trkpt lat="40.5215415" lon="9.8254277"><ele>3.4285714285714284</ele><time>2026-04-26T16:57:21.042Z</time></trkpt><trkpt lat="40.5216095" lon="9.8254443"><ele>3.8571428571428568</ele><time>2026-04-26T16:57:27.047Z</time></trkpt><trkpt lat="40.5216648" lon="9.8255066"><ele>4.285714285714286</ele><time>2026-04-26T16:57:33.041Z</time></trkpt><trkpt lat="40.521733" lon="9.8255404"><ele>4.7142857142857135</ele><time>2026-04-26T16:57:39.041Z</time></trkpt><trkpt lat="40.5217986" lon="9.8255585"><ele>5.142857142857142</ele><time>2026-04-26T16:57:44.041Z</time></trkpt><trkpt lat="40.521861" lon="9.8255961"><ele>5.571428571428571</ele><time>2026-04-26T16:57:50.041Z</time></trkpt><trkpt lat="40.5218931" lon="9.8256724"><ele>6.0</ele><time>2026-04-26T16:57:55.042Z</time></trkpt><trkpt lat="40.5219501" lon="9.8257336"><ele>5.999999999999999</ele><time>2026-04-26T16:58:01.041Z</time></trkpt><trkpt lat="40.5220263" lon="9.8257363"><ele>6.0</ele><time>2026-04-26T16:58:07.041Z</time></trkpt><trkpt lat="40.5220953" lon="9.8257059"><ele>6.0</ele><time>2026-04-26T16:58:13.041Z</time></trkpt><trkpt lat="40.5221358" lon="9.825632"><ele>6.0</ele><time>2026-04-26T16:58:19.041Z</time></trkpt><trkpt lat="40.5221976" lon="9.8255853"><ele>6.0</ele><time>2026-04-26T16:58:25.042Z</time></trkpt><trkpt lat="40.52226" lon="9.8255696"><ele>5.999999999999999</ele><time>2026-04-26T16:58:30.045Z</time></trkpt><trkpt lat="40.5223204" lon="9.8255376"><ele>6.0</ele><time>2026-04-26T16:58:36.042Z</time></trkpt><trkpt lat="40.5223849" lon="9.8255623"><ele>6.285714285714285</ele><time>2026-04-26T16:58:42.041Z</time></trkpt><trkpt lat="40.5224101" lon="9.8256396"><ele>6.571428571428571</ele><time>2026-04-26T16:58:48.042Z</time></trkpt><trkpt lat="40.5224329" lon="9.8257231"><ele>6.857142857142857</ele><time>2026-04-26T16:58:54.041Z</time></trkpt><trkpt lat="40.5224776" lon="9.8257936"><ele>7.142857142857142</ele><time>2026-04-26T16:59:00.041Z</time></trkpt><trkpt lat="40.522541" lon="9.8258356"><ele>7.428571428571428</ele><time>2026-04-26T16:59:06.041Z</time></trkpt><trkpt lat="40.5226054" lon="9.8258802"><ele>7.7142857142857135</ele><time>2026-04-26T16:59:12.041Z</time></trkpt><trkpt lat="40.5226616" lon="9.8259322"><ele>8.0</ele><time>2026-04-26T16:59:18.041Z</time></trkpt><trkpt lat="40.5227248" lon="9.8259875"><ele>7.285714285714286</ele><time>2026-04-26T16:59:24.042Z</time></trkpt><trkpt lat="40.5227855" lon="9.8260139"><ele>6.57142857142857</ele><time>2026-04-26T16:59:29.042Z</time></trkpt><trkpt lat="40.5228399" lon="9.8260618"><ele>5.857142857142857</ele><time>2026-04-26T16:59:34.041Z</time></trkpt><trkpt lat="40.5229007" lon="9.8261091"><ele>5.142857142857142</ele><time>2026-04-26T16:59:40.041Z</time></trkpt><trkpt lat="40.5229669" lon="9.8261515"><ele>4.428571428571429</ele><time>2026-04-26T16:59:46.041Z</time></trkpt><trkpt lat="40.5230332" lon="9.8261882"><ele>3.714285714285714</ele><time>2026-04-26T16:59:52.041Z</time></trkpt><trkpt lat="40.5231049" lon="9.8262168"><ele>3.0</ele><time>2026-04-26T16:59:58.041Z</time></trkpt><trkpt lat="40.5231799" lon="9.8262115"><ele>2.9999999999999996</ele><time>2026-04-26T17:00:04.041Z</time></trkpt><trkpt lat="40.5232485" lon="9.8261754"><ele>3.0</ele><time>2026-04-26T17:00:10.042Z</time></trkpt><trkpt lat="40.5233068" lon="9.8261221"><ele>3.0</ele><time>2026-04-26T17:00:16.041Z</time></trkpt><trkpt lat="40.5233576" lon="9.8260575"><ele>3.0</ele><time>2026-04-26T17:00:22.041Z</time></trkpt><trkpt lat="40.5234141" lon="9.8260087"><ele>3.0</ele><time>2026-04-26T17:00:28.041Z</time></trkpt><trkpt lat="40.5234839" lon="9.8260114"><ele>2.9999999999999996</ele><time>2026-04-26T17:00:33.979Z</time></trkpt><trkpt lat="40.5235555" lon="9.826003"><ele>3.0</ele><time>2026-04-26T17:00:39.947Z</time></trkpt><trkpt lat="40.5236257" lon="9.8259967"><ele>3.571428571428571</ele><time>2026-04-26T17:00:46.009Z</time></trkpt><trkpt lat="40.5236898" lon="9.8259591"><ele>4.142857142857142</ele><time>2026-04-26T17:00:52.01Z</time></trkpt><trkpt lat="40.523751" lon="9.8259073"><ele>4.714285714285714</ele><time>2026-04-26T17:00:58.041Z</time></trkpt><trkpt lat="40.5238161" lon="9.8258607"><ele>5.285714285714286</ele><time>2026-04-26T17:01:04.041Z</time></trkpt><trkpt lat="40.5238794" lon="9.8258537"><ele>5.857142857142857</ele><time>2026-04-26T17:01:09.041Z</time></trkpt><trkpt lat="40.5239567" lon="9.8258373"><ele>6.428571428571429</ele><time>2026-04-26T17:01:15.052Z</time></trkpt><trkpt lat="40.5240189" lon="9.8258751"><ele>7.0</ele><time>2026-04-26T17:01:22.993Z</time></trkpt><trkpt lat="40.5240453" lon="9.8259586"><ele>6.428571428571429</ele><time>2026-04-26T17:01:28.04Z</time></trkpt><trkpt lat="40.524091" lon="9.8260171"><ele>5.857142857142857</ele><time>2026-04-26T17:01:33.04Z</time></trkpt><trkpt lat="40.5241401" lon="9.826086"><ele>5.285714285714286</ele><time>2026-04-26T17:01:39.04Z</time></trkpt><trkpt lat="40.5241988" lon="9.826141"><ele>4.714285714285714</ele><time>2026-04-26T17:01:45.04Z</time></trkpt><trkpt lat="40.5242684" lon="9.8261692"><ele>4.142857142857142</ele><time>2026-04-26T17:01:51.001Z</time></trkpt><trkpt lat="40.5243309" lon="9.8262127"><ele>3.571428571428571</ele><time>2026-04-26T17:01:56.941Z</time></trkpt><trkpt lat="40.5243372" lon="9.8262996"><ele>3.0</ele><time>2026-04-26T17:02:03.04Z</time></trkpt><trkpt lat="40.5243994" lon="9.8263171"><ele>2.9999999999999996</ele><time>2026-04-26T17:02:08.041Z</time></trkpt><trkpt lat="40.5244657" lon="9.8263048"><ele>3.0</ele><time>2026-04-26T17:02:14.04Z</time></trkpt><trkpt lat="40.5245274" lon="9.8262719"><ele>3.0</ele><time>2026-04-26T17:02:20.04Z</time></trkpt><trkpt lat="40.5245904" lon="9.826275"><ele>3.0</ele><time>2026-04-26T17:02:26.041Z</time></trkpt><trkpt lat="40.5246272" lon="9.826357"><ele>3.0</ele><time>2026-04-26T17:02:32.04Z</time></trkpt><trkpt lat="40.5246668" lon="9.8264266"><ele>2.9999999999999996</ele><time>2026-04-26T17:02:38.045Z</time></trkpt><trkpt lat="40.5246936" lon="9.8265062"><ele>3.0</ele><time>2026-04-26T17:02:44.041Z</time></trkpt><trkpt lat="40.524728" lon="9.8265818"><ele>2.9999999999999996</ele><time>2026-04-26T17:02:50.041Z</time></trkpt><trkpt lat="40.5247222" lon="9.8266744"><ele>3.0</ele><time>2026-04-26T17:02:57.041Z</time></trkpt><trkpt lat="40.5246593" lon="9.8267213"><ele>3.0</ele><time>2026-04-26T17:03:04.04Z</time></trkpt><trkpt lat="40.5246764" lon="9.8268056"><ele>3.0</ele><time>2026-04-26T17:03:11.04Z</time></trkpt><trkpt lat="40.5247096" lon="9.8268814"><ele>3.0</ele><time>2026-04-26T17:03:30.041Z</time></trkpt><trkpt lat="40.5247498" lon="9.8269556"><ele>2.9999999999999996</ele><time>2026-04-26T17:03:35.041Z</time></trkpt><trkpt lat="40.5248183" lon="9.8269523"><ele>3.0</ele><time>2026-04-26T17:03:40.04Z</time></trkpt><trkpt lat="40.5248863" lon="9.8269141"><ele>2.9999999999999996</ele><time>2026-04-26T17:03:47.041Z</time></trkpt><trkpt lat="40.5249532" lon="9.8268916"><ele>3.0</ele><time>2026-04-26T17:03:54.041Z</time></trkpt><trkpt lat="40.5250151" lon="9.8268698"><ele>3.0</ele><time>2026-04-26T17:04:00.04Z</time></trkpt><trkpt lat="40.5250623" lon="9.8268105"><ele>3.0</ele><time>2026-04-26T17:04:06.041Z</time></trkpt><trkpt lat="40.5251276" lon="9.8267876"><ele>3.0</ele><time>2026-04-26T17:04:12.04Z</time></trkpt><trkpt lat="40.5251832" lon="9.8267324"><ele>2.9999999999999996</ele><time>2026-04-26T17:04:18.04Z</time></trkpt><trkpt lat="40.5252193" lon="9.8266595"><ele>3.0</ele><time>2026-04-26T17:04:23.949Z</time></trkpt><trkpt lat="40.5251978" lon="9.826578"><ele>3.4285714285714284</ele><time>2026-04-26T17:04:29.04Z</time></trkpt><trkpt lat="40.5252279" lon="9.8265049"><ele>3.8571428571428568</ele><time>2026-04-26T17:04:37.04Z</time></trkpt><trkpt lat="40.5252879" lon="9.8265445"><ele>4.285714285714286</ele><time>2026-04-26T17:04:42.041Z</time></trkpt><trkpt lat="40.5253553" lon="9.8265682"><ele>4.7142857142857135</ele><time>2026-04-26T17:04:47.964Z</time></trkpt><trkpt lat="40.5254205" lon="9.8265532"><ele>5.142857142857142</ele><time>2026-04-26T17:04:54.04Z</time></trkpt><trkpt lat="40.5254799" lon="9.8266159"><ele>5.571428571428571</ele><time>2026-04-26T17:05:00.04Z</time></trkpt><trkpt lat="40.5255354" lon="9.8266597"><ele>6.0</ele><time>2026-04-26T17:05:06.041Z</time></trkpt><trkpt lat="40.5255888" lon="9.826608"><ele>6.428571428571428</ele><time>2026-04-26T17:05:13.04Z</time></trkpt><trkpt lat="40.5256174" lon="9.8265335"><ele>6.857142857142858</ele><time>2026-04-26T17:05:19.04Z</time></trkpt><trkpt lat="40.5256675" lon="9.8264804"><ele>7.2857142857142865</ele><time>2026-04-26T17:05:25.04Z</time></trkpt><trkpt lat="40.5257103" lon="9.8264193"><ele>7.714285714285714</ele><time>2026-04-26T17:05:34.04Z</time></trkpt><trkpt lat="40.525774" lon="9.8264661"><ele>8.142857142857142</ele><time>2026-04-26T17:05:39.04Z</time></trkpt><trkpt lat="40.5258362" lon="9.8264912"><ele>8.571428571428573</ele><time>2026-04-26T17:05:44.04Z</time></trkpt><trkpt lat="40.5258999" lon="9.8265254"><ele>9.0</ele><time>2026-04-26T17:05:50.041Z</time></trkpt><trkpt lat="40.5259477" lon="9.8265817"><ele>9.000000000000002</ele><time>2026-04-26T17:05:55.04Z</time></trkpt><trkpt lat="40.5260113" lon="9.8265917"><ele>9.0</ele><time>2026-04-26T17:06:00.04Z</time></trkpt><trkpt lat="40.5260528" lon="9.8265283"><ele>9.0</ele><time>2026-04-26T17:06:06.041Z</time></trkpt><trkpt lat="40.5261225" lon="9.8265262"><ele>9.0</ele><time>2026-04-26T17:06:13.041Z</time></trkpt><trkpt lat="40.5261898" lon="9.8265366"><ele>9.0</ele><time>2026-04-26T17:06:19.965Z</time></trkpt><trkpt lat="40.5262549" lon="9.8265738"><ele>9.000000000000002</ele><time>2026-04-26T17:06:29.04Z</time></trkpt><trkpt lat="40.5263157" lon="9.8266072"><ele>9.0</ele><time>2026-04-26T17:06:38.041Z</time></trkpt><trkpt lat="40.5263814" lon="9.826602"><ele>9.142857142857144</ele><time>2026-04-26T17:06:45.04Z</time></trkpt><trkpt lat="40.5264429" lon="9.8265698"><ele>9.285714285714286</ele><time>2026-04-26T17:06:53.04Z</time></trkpt><trkpt lat="40.5265055" lon="9.8265343"><ele>9.428571428571429</ele><time>2026-04-26T17:07:00.04Z</time></trkpt><trkpt lat="40.5265552" lon="9.8265999"><ele>9.571428571428573</ele><time>2026-04-26T17:07:07.04Z</time></trkpt><trkpt lat="40.5265078" lon="9.8266757"><ele>9.714285714285715</ele><time>2026-04-26T17:07:12.04Z</time></trkpt><trkpt lat="40.5265701" lon="9.8266968"><ele>9.857142857142858</ele><time>2026-04-26T17:07:20.041Z</time></trkpt><trkpt lat="40.5266366" lon="9.8267174"><ele>10.0</ele><time>2026-04-26T17:07:28.041Z</time></trkpt><trkpt lat="40.5266531" lon="9.8267993"><ele>10.0</ele><time>2026-04-26T17:07:34.041Z</time></trkpt><trkpt lat="40.5267023" lon="9.8267377"><ele>10.0</ele><time>2026-04-26T17:07:42.04Z</time></trkpt><trkpt lat="40.5267553" lon="9.826798"><ele>10.0</ele><time>2026-04-26T17:07:51.041Z</time></trkpt><trkpt lat="40.5268098" lon="9.8268411"><ele>10.0</ele><time>2026-04-26T17:07:59.038Z</time></trkpt><trkpt lat="40.5268751" lon="9.826856"><ele>10.0</ele><time>2026-04-26T17:08:08.049Z</time></trkpt><trkpt lat="40.5269342" lon="9.8268893"><ele>10.0</ele><time>2026-04-26T17:08:15.041Z</time></trkpt><trkpt lat="40.5269992" lon="9.826914"><ele>10.0</ele><time>2026-04-26T17:08:28.041Z</time></trkpt><trkpt lat="40.5270521" lon="9.8268679"><ele>9.285714285714285</ele><time>2026-04-26T17:08:34.04Z</time></trkpt><trkpt lat="40.5271152" lon="9.8268608"><ele>8.571428571428571</ele><time>2026-04-26T17:08:41.04Z</time></trkpt><trkpt lat="40.5271835" lon="9.8268795"><ele>7.857142857142858</ele><time>2026-04-26T17:08:48.008Z</time></trkpt><trkpt lat="40.5272449" lon="9.8269149"><ele>7.142857142857142</ele><time>2026-04-26T17:08:55.04Z</time></trkpt><trkpt lat="40.5273101" lon="9.8269498"><ele>6.428571428571429</ele><time>2026-04-26T17:09:02.04Z</time></trkpt><trkpt lat="40.527374" lon="9.8269627"><ele>5.714285714285714</ele><time>2026-04-26T17:09:08.041Z</time></trkpt><trkpt lat="40.5274406" lon="9.8269871"><ele>5.0</ele><time>2026-04-26T17:09:14.996Z</time></trkpt><trkpt lat="40.527502" lon="9.8270138"><ele>5.0</ele><time>2026-04-26T17:09:21.04Z</time></trkpt><trkpt lat="40.5275725" lon="9.827043"><ele>5.0</ele><time>2026-04-26T17:09:28.04Z</time></trkpt><trkpt lat="40.527638" lon="9.8270652"><ele>5.0</ele><time>2026-04-26T17:09:35.04Z</time></trkpt><trkpt lat="40.5276989" lon="9.8270896"><ele>5.0</ele><time>2026-04-26T17:09:41.04Z</time></trkpt><trkpt lat="40.5277712" lon="9.8270953"><ele>5.0</ele><time>2026-04-26T17:09:48.041Z</time></trkpt><trkpt lat="40.5278419" lon="9.8271023"><ele>5.0</ele><time>2026-04-26T17:09:54.04Z</time></trkpt><trkpt lat="40.5279092" lon="9.8271112"><ele>5.0</ele><time>2026-04-26T17:10:00.04Z</time></trkpt><trkpt lat="40.5279759" lon="9.827127"><ele>5.571428571428571</ele><time>2026-04-26T17:10:06.041Z</time></trkpt><trkpt lat="40.528035" lon="9.827159"><ele>6.142857142857143</ele><time>2026-04-26T17:10:12.04Z</time></trkpt><trkpt lat="40.5280905" lon="9.8272095"><ele>6.714285714285715</ele><time>2026-04-26T17:10:18.041Z</time></trkpt><trkpt lat="40.5281448" lon="9.8272567"><ele>7.2857142857142865</ele><time>2026-04-26T17:10:24.04Z</time></trkpt><trkpt lat="40.5282016" lon="9.8272998"><ele>7.857142857142858</ele><time>2026-04-26T17:10:30.04Z</time></trkpt><trkpt lat="40.5282718" lon="9.8273016"><ele>8.428571428571429</ele><time>2026-04-26T17:10:37.04Z</time></trkpt><trkpt lat="40.5283406" lon="9.8272856"><ele>9.0</ele><time>2026-04-26T17:10:54.04Z</time></trkpt><trkpt lat="40.5283877" lon="9.8272161"><ele>9.0</ele><time>2026-04-26T17:11:01.04Z</time></trkpt><trkpt lat="40.5284396" lon="9.8271646"><ele>9.0</ele><time>2026-04-26T17:11:08.041Z</time></trkpt><trkpt lat="40.5284974" lon="9.8271142"><ele>9.0</ele><time>2026-04-26T17:11:15.04Z</time></trkpt><trkpt lat="40.5285522" lon="9.8270627"><ele>9.0</ele><time>2026-04-26T17:11:23.04Z</time></trkpt><trkpt lat="40.5286167" lon="9.8270486"><ele>9.0</ele><time>2026-04-26T17:11:31.04Z</time></trkpt><trkpt lat="40.5286772" lon="9.8270065"><ele>9.0</ele><time>2026-04-26T17:11:38.954Z</time></trkpt></trkseg></trk></gpx>